EAN567 DNMK-DNMM
Flight info
| Callsign | EAN567 |
|---|---|
| Flight time | 1h 18m |
| Altitude | 24000 |
| Route | OVRAP DCT EDBUR |
| Aircraft | PC12/L-SDFGRWY/S |
Departure
| Time | 2026-04-29 17:42 |
|---|---|
| Airport | Makurdi Airport (DNMK) |
Arrival
| Time | 2026-04-29 19:00 |
|---|---|
| Airport | Murtala Muhammed International Airport (DNMM) |
| Time | Latitude | Longitude | Altitude | Speed | Heading |
|---|---|---|---|---|---|
| 2026-04-29 17:35 | 7.70042 | 8.61392 | 334 ft | 0 kts | 227° |
| 2026-04-29 17:38 | 7.70040 | 8.61389 | 330 ft | 5 kts | 227° |
| 2026-04-29 17:38 | 7.70030 | 8.61290 | 336 ft | 23 kts | 278° |
| 2026-04-29 17:39 | 7.69949 | 8.61124 | 341 ft | 32 kts | 230° |
| 2026-04-29 17:39 | 7.69795 | 8.60929 | 346 ft | 39 kts | 233° |
| 2026-04-29 17:39 | 7.69620 | 8.60699 | 352 ft | 44 kts | 234° |
| 2026-04-29 17:39 | 7.69523 | 8.60403 | 359 ft | 47 kts | 281° |
| 2026-04-29 17:40 | 7.69669 | 8.60427 | 361 ft | 29 kts | 68° |
| 2026-04-29 17:40 | 7.69706 | 8.60489 | 354 ft | 0 kts | 50° |
| 2026-04-29 17:40 | 7.69720 | 8.60505 | 353 ft | 17 kts | 49° |
| 2026-04-29 17:41 | 7.69914 | 8.60757 | 346 ft | 73 kts | 51° |
| 2026-04-29 17:41 | 7.70320 | 8.61286 | 332 ft | 116 kts | 53° |
| 2026-04-29 17:41 | 7.70877 | 8.61998 | 437 ft | 134 kts | 50° |
| 2026-04-29 17:41 | 7.71467 | 8.62728 | 885 ft | 134 kts | 53° |
| 2026-04-29 17:42 | 7.71903 | 8.63672 | 921 ft | 169 kts | 73° |
| 2026-04-29 17:42 | 7.72297 | 8.64926 | 1001 ft | 203 kts | 80° |
| 2026-04-29 17:42 | 7.72141 | 8.66389 | 985 ft | 223 kts | 115° |
| 2026-04-29 17:42 | 7.71126 | 8.67625 | 722 ft | 241 kts | 146° |
| 2026-04-29 17:43 | 7.69563 | 8.68145 | 755 ft | 232 kts | 180° |
| 2026-04-29 17:43 | 7.68147 | 8.67697 | 1398 ft | 202 kts | 217° |
| 2026-04-29 17:43 | 7.67427 | 8.66601 | 2220 ft | 181 kts | 256° |
| 2026-04-29 17:43 | 7.67563 | 8.65429 | 3173 ft | 160 kts | 283° |
| 2026-04-29 17:44 | 7.67807 | 8.64406 | 3988 ft | 145 kts | 276° |
| 2026-04-29 17:44 | 7.67838 | 8.63391 | 4537 ft | 146 kts | 257° |
| 2026-04-29 17:44 | 7.67567 | 8.62399 | 5069 ft | 149 kts | 251° |
| 2026-04-29 17:44 | 7.67251 | 8.61384 | 5578 ft | 154 kts | 250° |
| 2026-04-29 17:45 | 7.66911 | 8.60340 | 6076 ft | 159 kts | 250° |
| 2026-04-29 17:45 | 7.66559 | 8.59273 | 6577 ft | 163 kts | 250° |
| 2026-04-29 17:45 | 7.66195 | 8.58173 | 7057 ft | 167 kts | 249° |
| 2026-04-29 17:45 | 7.65821 | 8.57053 | 7562 ft | 170 kts | 248° |
| 2026-04-29 17:46 | 7.65444 | 8.55910 | 8087 ft | 173 kts | 250° |
| 2026-04-29 17:46 | 7.65066 | 8.54744 | 8622 ft | 177 kts | 249° |
| 2026-04-29 17:46 | 7.64673 | 8.53557 | 9139 ft | 181 kts | 249° |
| 2026-04-29 17:46 | 7.64277 | 8.52357 | 9635 ft | 185 kts | 248° |
| 2026-04-29 17:47 | 7.63867 | 8.51113 | 10131 ft | 187 kts | 249° |
| 2026-04-29 17:47 | 7.63459 | 8.49867 | 10645 ft | 188 kts | 249° |
| 2026-04-29 17:47 | 7.63046 | 8.48614 | 11149 ft | 189 kts | 249° |
| 2026-04-29 17:47 | 7.62628 | 8.47350 | 11665 ft | 190 kts | 249° |
| 2026-04-29 17:48 | 7.62210 | 8.46084 | 12210 ft | 191 kts | 249° |
| 2026-04-29 17:48 | 7.61789 | 8.44807 | 12731 ft | 193 kts | 249° |
| 2026-04-29 17:48 | 7.61367 | 8.43524 | 13252 ft | 194 kts | 250° |
| 2026-04-29 17:48 | 7.60939 | 8.42232 | 13772 ft | 195 kts | 250° |
| 2026-04-29 17:49 | 7.60509 | 8.40929 | 14218 ft | 196 kts | 250° |
| 2026-04-29 17:49 | 7.60076 | 8.39617 | 14612 ft | 198 kts | 250° |
| 2026-04-29 17:49 | 7.59640 | 8.38294 | 15029 ft | 199 kts | 250° |
| 2026-04-29 17:49 | 7.59200 | 8.36964 | 15442 ft | 201 kts | 249° |
| 2026-04-29 17:50 | 7.58762 | 8.35642 | 15846 ft | 202 kts | 250° |
| 2026-04-29 17:50 | 7.58316 | 8.34290 | 16259 ft | 204 kts | 250° |
| 2026-04-29 17:50 | 7.57867 | 8.32928 | 16665 ft | 205 kts | 250° |
| 2026-04-29 17:50 | 7.57416 | 8.31561 | 17072 ft | 207 kts | 250° |
| 2026-04-29 17:51 | 7.56959 | 8.30179 | 17469 ft | 208 kts | 250° |
| 2026-04-29 17:51 | 7.56494 | 8.28784 | 17875 ft | 210 kts | 250° |
| 2026-04-29 17:51 | 7.56031 | 8.27384 | 18253 ft | 211 kts | 250° |
| 2026-04-29 17:51 | 7.55567 | 8.25972 | 18588 ft | 213 kts | 250° |
| 2026-04-29 17:52 | 7.55100 | 8.24550 | 18932 ft | 214 kts | 250° |
| 2026-04-29 17:52 | 7.54789 | 8.23601 | 19155 ft | 215 kts | 250° |
| 2026-04-29 17:52 | 7.54157 | 8.21693 | 19604 ft | 218 kts | 250° |
| 2026-04-29 17:52 | 7.53669 | 8.20220 | 19926 ft | 222 kts | 250° |
| 2026-04-29 17:53 | 7.53164 | 8.18696 | 19946 ft | 241 kts | 250° |
| 2026-04-29 17:53 | 7.52620 | 8.17041 | 19983 ft | 256 kts | 251° |
| 2026-04-29 17:53 | 7.52043 | 8.15293 | 20021 ft | 268 kts | 251° |
| 2026-04-29 17:53 | 7.51444 | 8.13483 | 20052 ft | 276 kts | 251° |
| 2026-04-29 17:54 | 7.50827 | 8.11619 | 20075 ft | 283 kts | 251° |
| 2026-04-29 17:54 | 7.50197 | 8.09715 | 19955 ft | 292 kts | 251° |
| 2026-04-29 17:54 | 7.49548 | 8.07751 | 19870 ft | 296 kts | 251° |
| 2026-04-29 17:54 | 7.48899 | 8.05790 | 19866 ft | 296 kts | 251° |
| 2026-04-29 17:55 | 7.48247 | 8.03822 | 19868 ft | 295 kts | 251° |
| 2026-04-29 17:55 | 7.47598 | 8.01863 | 19869 ft | 295 kts | 251° |
| 2026-04-29 17:55 | 7.46948 | 7.99899 | 19869 ft | 295 kts | 251° |
| 2026-04-29 17:55 | 7.46307 | 7.97964 | 19869 ft | 295 kts | 251° |
| 2026-04-29 17:56 | 7.45658 | 7.96007 | 19873 ft | 295 kts | 251° |
| 2026-04-29 17:56 | 7.45009 | 7.94047 | 19874 ft | 295 kts | 251° |
| 2026-04-29 17:56 | 7.44358 | 7.92082 | 19873 ft | 295 kts | 251° |
| 2026-04-29 17:56 | 7.43706 | 7.90115 | 19873 ft | 295 kts | 251° |
| 2026-04-29 17:57 | 7.43055 | 7.88153 | 19877 ft | 295 kts | 251° |
| 2026-04-29 17:57 | 7.42417 | 7.86188 | 19873 ft | 294 kts | 254° |
| 2026-04-29 17:57 | 7.42061 | 7.84161 | 19870 ft | 294 kts | 262° |
| 2026-04-29 17:57 | 7.41864 | 7.82810 | 19869 ft | 294 kts | 262° |
| 2026-04-29 17:58 | 7.41443 | 7.80085 | 19880 ft | 294 kts | 261° |
| 2026-04-29 17:58 | 7.41126 | 7.78043 | 19880 ft | 295 kts | 261° |
| 2026-04-29 17:58 | 7.40815 | 7.76003 | 19881 ft | 295 kts | 261° |
| 2026-04-29 17:58 | 7.40503 | 7.73957 | 19882 ft | 295 kts | 261° |
| 2026-04-29 17:59 | 7.40196 | 7.71945 | 19877 ft | 295 kts | 261° |
| 2026-04-29 17:59 | 7.39882 | 7.69899 | 19890 ft | 295 kts | 261° |
| 2026-04-29 17:59 | 7.39569 | 7.67860 | 19890 ft | 295 kts | 262° |
| 2026-04-29 17:59 | 7.39256 | 7.65818 | 19884 ft | 295 kts | 261° |
| 2026-04-29 18:00 | 7.38944 | 7.63778 | 19887 ft | 294 kts | 261° |
| 2026-04-29 18:00 | 7.38631 | 7.61733 | 19892 ft | 295 kts | 262° |
| 2026-04-29 18:00 | 7.38318 | 7.59694 | 19892 ft | 295 kts | 262° |
| 2026-04-29 18:00 | 7.38004 | 7.57650 | 19888 ft | 295 kts | 261° |
| 2026-04-29 18:01 | 7.37691 | 7.55608 | 19894 ft | 295 kts | 261° |
| 2026-04-29 18:01 | 7.37377 | 7.53563 | 19893 ft | 295 kts | 261° |
| 2026-04-29 18:01 | 7.37063 | 7.51521 | 19894 ft | 295 kts | 261° |
| 2026-04-29 18:01 | 7.36749 | 7.49474 | 19887 ft | 295 kts | 262° |
| 2026-04-29 18:02 | 7.36437 | 7.47448 | 19882 ft | 295 kts | 262° |
| 2026-04-29 18:02 | 7.36123 | 7.45402 | 19889 ft | 295 kts | 261° |
| 2026-04-29 18:02 | 7.35808 | 7.43355 | 19892 ft | 295 kts | 261° |
| 2026-04-29 18:02 | 7.35493 | 7.41305 | 19895 ft | 296 kts | 262° |
| 2026-04-29 18:03 | 7.35178 | 7.39258 | 19896 ft | 296 kts | 262° |
| 2026-04-29 18:03 | 7.34863 | 7.37213 | 19898 ft | 295 kts | 262° |
| 2026-04-29 18:03 | 7.34548 | 7.35164 | 19897 ft | 296 kts | 261° |
| 2026-04-29 18:03 | 7.34232 | 7.33116 | 19892 ft | 296 kts | 261° |
| 2026-04-29 18:04 | 7.33922 | 7.31099 | 19896 ft | 296 kts | 261° |
| 2026-04-29 18:04 | 7.33607 | 7.29056 | 19894 ft | 295 kts | 262° |
| 2026-04-29 18:04 | 7.33292 | 7.27014 | 19894 ft | 295 kts | 262° |
| 2026-04-29 18:04 | 7.32978 | 7.24972 | 19896 ft | 295 kts | 262° |
| 2026-04-29 18:05 | 7.32662 | 7.22928 | 19890 ft | 295 kts | 262° |
| 2026-04-29 18:05 | 7.32346 | 7.20880 | 19889 ft | 295 kts | 262° |
| 2026-04-29 18:05 | 7.32031 | 7.18834 | 19891 ft | 295 kts | 262° |
| 2026-04-29 18:05 | 7.31715 | 7.16787 | 19890 ft | 296 kts | 262° |
| 2026-04-29 18:06 | 7.31397 | 7.14733 | 19893 ft | 296 kts | 261° |
| 2026-04-29 18:06 | 7.31081 | 7.12682 | 19884 ft | 296 kts | 261° |
| 2026-04-29 18:06 | 7.30769 | 7.10661 | 19895 ft | 296 kts | 262° |
| 2026-04-29 18:06 | 7.30452 | 7.08610 | 19892 ft | 296 kts | 261° |
| 2026-04-29 18:07 | 7.30134 | 7.06559 | 19888 ft | 296 kts | 261° |
| 2026-04-29 18:07 | 7.29817 | 7.04509 | 19890 ft | 296 kts | 262° |
| 2026-04-29 18:07 | 7.29500 | 7.02457 | 19887 ft | 296 kts | 261° |
| 2026-04-29 18:07 | 7.29183 | 7.00408 | 19882 ft | 296 kts | 261° |
| 2026-04-29 18:08 | 7.28865 | 6.98356 | 19882 ft | 296 kts | 261° |
| 2026-04-29 18:08 | 7.28548 | 6.96308 | 19882 ft | 296 kts | 261° |
| 2026-04-29 18:08 | 7.28231 | 6.94260 | 19885 ft | 296 kts | 261° |
| 2026-04-29 18:08 | 7.27912 | 6.92206 | 19882 ft | 296 kts | 261° |
| 2026-04-29 18:09 | 7.27595 | 6.90159 | 19884 ft | 297 kts | 261° |
| 2026-04-29 18:09 | 7.27277 | 6.88106 | 19887 ft | 296 kts | 261° |
| 2026-04-29 18:09 | 7.26959 | 6.86056 | 19887 ft | 296 kts | 261° |
| 2026-04-29 18:09 | 7.26641 | 6.84006 | 19884 ft | 296 kts | 261° |
| 2026-04-29 18:10 | 7.26323 | 6.81953 | 19883 ft | 296 kts | 261° |
| 2026-04-29 18:10 | 7.26005 | 6.79906 | 19883 ft | 296 kts | 261° |
| 2026-04-29 18:10 | 7.25690 | 6.77877 | 19884 ft | 296 kts | 261° |
| 2026-04-29 18:10 | 7.25372 | 6.75829 | 19886 ft | 296 kts | 261° |
| 2026-04-29 18:11 | 7.25052 | 6.73775 | 19887 ft | 296 kts | 261° |
| 2026-04-29 18:11 | 7.24734 | 6.71726 | 19889 ft | 296 kts | 261° |
| 2026-04-29 18:11 | 7.24416 | 6.69676 | 19885 ft | 296 kts | 261° |
| 2026-04-29 18:11 | 7.24096 | 6.67624 | 19881 ft | 296 kts | 261° |
| 2026-04-29 18:12 | 7.23778 | 6.65575 | 19891 ft | 296 kts | 261° |
| 2026-04-29 18:12 | 7.23457 | 6.63515 | 19889 ft | 297 kts | 261° |
| 2026-04-29 18:12 | 7.23137 | 6.61461 | 19887 ft | 297 kts | 261° |
| 2026-04-29 18:12 | 7.22818 | 6.59406 | 19880 ft | 296 kts | 261° |
| 2026-04-29 18:13 | 7.22498 | 6.57352 | 19883 ft | 296 kts | 261° |
| 2026-04-29 18:13 | 7.22182 | 6.55328 | 19885 ft | 296 kts | 261° |
| 2026-04-29 18:13 | 7.21862 | 6.53275 | 19887 ft | 297 kts | 261° |
| 2026-04-29 18:13 | 7.21543 | 6.51224 | 19893 ft | 297 kts | 261° |
| 2026-04-29 18:14 | 7.21223 | 6.49173 | 19893 ft | 296 kts | 261° |
| 2026-04-29 18:14 | 7.21011 | 6.47815 | 19893 ft | 296 kts | 261° |
| 2026-04-29 18:14 | 7.20691 | 6.45761 | 19892 ft | 296 kts | 261° |
| 2026-04-29 18:14 | 7.20371 | 6.43709 | 19888 ft | 296 kts | 261° |
| 2026-04-29 18:15 | 7.20051 | 6.41660 | 19886 ft | 296 kts | 261° |
| 2026-04-29 18:15 | 7.19730 | 6.39607 | 19897 ft | 296 kts | 261° |
| 2026-04-29 18:15 | 7.19411 | 6.37560 | 19897 ft | 296 kts | 261° |
| 2026-04-29 18:15 | 7.19089 | 6.35502 | 19893 ft | 296 kts | 261° |
| 2026-04-29 18:16 | 7.18769 | 6.33454 | 19892 ft | 296 kts | 261° |
| 2026-04-29 18:16 | 7.18452 | 6.31425 | 19896 ft | 296 kts | 261° |
| 2026-04-29 18:16 | 7.18131 | 6.29373 | 19902 ft | 296 kts | 261° |
| 2026-04-29 18:16 | 7.17811 | 6.27323 | 19903 ft | 296 kts | 261° |
| 2026-04-29 18:17 | 7.17490 | 6.25275 | 19902 ft | 296 kts | 261° |
| 2026-04-29 18:17 | 7.17169 | 6.23226 | 19903 ft | 296 kts | 261° |
| 2026-04-29 18:17 | 7.16848 | 6.21176 | 19907 ft | 296 kts | 261° |
| 2026-04-29 18:17 | 7.16528 | 6.19130 | 19907 ft | 295 kts | 261° |
| 2026-04-29 18:18 | 7.16211 | 6.17110 | 19906 ft | 295 kts | 261° |
| 2026-04-29 18:18 | 7.15887 | 6.15040 | 19906 ft | 296 kts | 261° |
| 2026-04-29 18:18 | 7.15567 | 6.12997 | 19906 ft | 296 kts | 261° |
| 2026-04-29 18:18 | 7.15246 | 6.10952 | 19908 ft | 296 kts | 261° |
| 2026-04-29 18:19 | 7.14929 | 6.08933 | 19906 ft | 296 kts | 261° |
| 2026-04-29 18:19 | 7.14609 | 6.06890 | 19905 ft | 295 kts | 261° |
| 2026-04-29 18:19 | 7.14288 | 6.04844 | 19908 ft | 295 kts | 261° |
| 2026-04-29 18:19 | 7.13967 | 6.02803 | 19914 ft | 295 kts | 261° |
| 2026-04-29 18:20 | 7.13646 | 6.00756 | 19904 ft | 296 kts | 261° |
| 2026-04-29 18:20 | 7.13325 | 5.98715 | 19911 ft | 295 kts | 261° |
| 2026-04-29 18:20 | 7.13004 | 5.96667 | 19911 ft | 295 kts | 261° |
| 2026-04-29 18:20 | 7.12683 | 5.94626 | 19910 ft | 295 kts | 261° |
| 2026-04-29 18:21 | 7.12362 | 5.92582 | 19907 ft | 295 kts | 261° |
| 2026-04-29 18:21 | 7.12041 | 5.90544 | 19912 ft | 295 kts | 261° |
| 2026-04-29 18:21 | 7.11720 | 5.88502 | 19911 ft | 295 kts | 261° |
| 2026-04-29 18:21 | 7.11402 | 5.86485 | 19914 ft | 295 kts | 261° |
| 2026-04-29 18:22 | 7.11082 | 5.84448 | 19911 ft | 295 kts | 261° |
| 2026-04-29 18:22 | 7.10761 | 5.82408 | 19916 ft | 295 kts | 261° |
| 2026-04-29 18:22 | 7.10440 | 5.80371 | 19915 ft | 295 kts | 261° |
| 2026-04-29 18:22 | 7.10119 | 5.78333 | 19912 ft | 295 kts | 261° |
| 2026-04-29 18:23 | 7.09798 | 5.76295 | 19916 ft | 295 kts | 261° |
| 2026-04-29 18:23 | 7.09477 | 5.74258 | 19915 ft | 295 kts | 261° |
| 2026-04-29 18:23 | 7.09155 | 5.72215 | 19911 ft | 295 kts | 261° |
| 2026-04-29 18:23 | 7.08833 | 5.70178 | 19917 ft | 294 kts | 261° |
| 2026-04-29 18:24 | 7.08512 | 5.68142 | 19916 ft | 294 kts | 261° |
| 2026-04-29 18:24 | 7.08191 | 5.66102 | 19916 ft | 295 kts | 261° |
| 2026-04-29 18:24 | 7.07872 | 5.64086 | 19916 ft | 295 kts | 261° |
| 2026-04-29 18:24 | 7.07551 | 5.62051 | 19919 ft | 295 kts | 261° |
| 2026-04-29 18:25 | 7.07229 | 5.60013 | 19918 ft | 295 kts | 261° |
| 2026-04-29 18:25 | 7.06907 | 5.57978 | 19915 ft | 294 kts | 261° |
| 2026-04-29 18:25 | 7.06586 | 5.55943 | 19920 ft | 294 kts | 261° |
| 2026-04-29 18:25 | 7.06265 | 5.53908 | 19920 ft | 294 kts | 261° |
| 2026-04-29 18:26 | 7.05942 | 5.51872 | 19916 ft | 294 kts | 261° |
| 2026-04-29 18:26 | 7.05620 | 5.49838 | 19919 ft | 294 kts | 261° |
| 2026-04-29 18:26 | 7.05300 | 5.47809 | 19922 ft | 294 kts | 261° |
| 2026-04-29 18:26 | 7.04977 | 5.45769 | 19919 ft | 294 kts | 261° |
| 2026-04-29 18:27 | 7.04655 | 5.43734 | 19923 ft | 294 kts | 261° |
| 2026-04-29 18:27 | 7.04332 | 5.41699 | 19922 ft | 295 kts | 261° |
| 2026-04-29 18:27 | 7.04011 | 5.39665 | 19923 ft | 295 kts | 261° |
| 2026-04-29 18:27 | 7.03687 | 5.37628 | 19925 ft | 294 kts | 261° |
| 2026-04-29 18:28 | 7.03365 | 5.35595 | 19920 ft | 294 kts | 261° |
| 2026-04-29 18:28 | 7.03042 | 5.33559 | 19930 ft | 295 kts | 261° |
| 2026-04-29 18:28 | 7.02719 | 5.31516 | 19919 ft | 295 kts | 261° |
| 2026-04-29 18:28 | 7.02395 | 5.29479 | 19925 ft | 295 kts | 261° |
| 2026-04-29 18:29 | 7.02072 | 5.27438 | 19920 ft | 295 kts | 261° |
| 2026-04-29 18:29 | 7.01857 | 5.26082 | 19923 ft | 295 kts | 261° |
| 2026-04-29 18:29 | 7.01424 | 5.23359 | 19921 ft | 295 kts | 261° |
| 2026-04-29 18:29 | 7.01100 | 5.21322 | 19923 ft | 295 kts | 261° |
| 2026-04-29 18:30 | 7.00777 | 5.19285 | 19924 ft | 295 kts | 261° |
| 2026-04-29 18:30 | 7.00457 | 5.17269 | 19917 ft | 295 kts | 261° |
| 2026-04-29 18:30 | 7.00133 | 5.15231 | 19921 ft | 295 kts | 261° |
| 2026-04-29 18:30 | 6.99809 | 5.13195 | 19918 ft | 295 kts | 261° |
| 2026-04-29 18:31 | 6.99484 | 5.11152 | 19920 ft | 295 kts | 261° |
| 2026-04-29 18:31 | 6.99160 | 5.09113 | 19918 ft | 295 kts | 261° |
| 2026-04-29 18:31 | 6.98836 | 5.07074 | 19921 ft | 295 kts | 261° |
| 2026-04-29 18:31 | 6.98511 | 5.05035 | 19918 ft | 295 kts | 261° |
| 2026-04-29 18:32 | 6.98185 | 5.02991 | 19921 ft | 295 kts | 261° |
| 2026-04-29 18:32 | 6.97540 | 4.98934 | 19923 ft | 295 kts | 260° |
| 2026-04-29 18:32 | 6.97210 | 4.96870 | 19918 ft | 295 kts | 260° |
| 2026-04-29 18:33 | 6.96885 | 4.94832 | 19920 ft | 295 kts | 260° |
| 2026-04-29 18:33 | 6.96560 | 4.92792 | 19918 ft | 295 kts | 260° |
| 2026-04-29 18:33 | 6.96234 | 4.90752 | 19925 ft | 295 kts | 260° |
| 2026-04-29 18:33 | 6.95908 | 4.88704 | 19914 ft | 295 kts | 260° |
| 2026-04-29 18:34 | 6.95588 | 4.86690 | 19915 ft | 295 kts | 260° |
| 2026-04-29 18:34 | 6.95368 | 4.85313 | 19923 ft | 295 kts | 260° |
| 2026-04-29 18:34 | 6.94936 | 4.82614 | 19922 ft | 295 kts | 260° |
| 2026-04-29 18:34 | 6.94609 | 4.80569 | 19914 ft | 295 kts | 260° |
| 2026-04-29 18:35 | 6.94284 | 4.78529 | 19917 ft | 295 kts | 260° |
| 2026-04-29 18:35 | 6.93958 | 4.76490 | 19919 ft | 295 kts | 260° |
| 2026-04-29 18:35 | 6.93632 | 4.74451 | 19914 ft | 295 kts | 260° |
| 2026-04-29 18:35 | 6.93307 | 4.72419 | 19919 ft | 295 kts | 260° |
| 2026-04-29 18:36 | 6.92981 | 4.70381 | 19918 ft | 295 kts | 260° |
| 2026-04-29 18:36 | 6.92655 | 4.68346 | 19909 ft | 295 kts | 260° |
| 2026-04-29 18:36 | 6.92330 | 4.66311 | 19917 ft | 295 kts | 260° |
| 2026-04-29 18:36 | 6.92002 | 4.64266 | 19920 ft | 295 kts | 260° |
| 2026-04-29 18:37 | 6.91675 | 4.62224 | 19911 ft | 295 kts | 260° |
| 2026-04-29 18:37 | 6.91348 | 4.60184 | 19916 ft | 295 kts | 260° |
| 2026-04-29 18:37 | 6.91027 | 4.58176 | 19911 ft | 295 kts | 260° |
| 2026-04-29 18:37 | 6.90699 | 4.56131 | 19914 ft | 295 kts | 260° |
| 2026-04-29 18:38 | 6.90373 | 4.54093 | 19913 ft | 295 kts | 260° |
| 2026-04-29 18:38 | 6.90046 | 4.52058 | 19910 ft | 295 kts | 260° |
| 2026-04-29 18:38 | 6.89720 | 4.50020 | 19914 ft | 295 kts | 260° |
| 2026-04-29 18:38 | 6.89394 | 4.47987 | 19913 ft | 295 kts | 260° |
| 2026-04-29 18:39 | 6.89067 | 4.45950 | 19910 ft | 295 kts | 260° |
| 2026-04-29 18:39 | 6.88741 | 4.43915 | 19910 ft | 295 kts | 260° |
| 2026-04-29 18:39 | 6.88413 | 4.41876 | 19914 ft | 295 kts | 260° |
| 2026-04-29 18:39 | 6.88086 | 4.39839 | 19912 ft | 295 kts | 260° |
| 2026-04-29 18:40 | 6.87758 | 4.37798 | 19908 ft | 295 kts | 260° |
| 2026-04-29 18:40 | 6.87431 | 4.35762 | 19913 ft | 295 kts | 260° |
| 2026-04-29 18:40 | 6.87103 | 4.33725 | 19913 ft | 294 kts | 260° |
| 2026-04-29 18:40 | 6.86777 | 4.31692 | 19910 ft | 294 kts | 260° |
| 2026-04-29 18:41 | 6.85793 | 4.25576 | 19691 ft | 301 kts | 260° |
| 2026-04-29 18:41 | 6.85454 | 4.23471 | 19348 ft | 309 kts | 260° |
| 2026-04-29 18:42 | 6.85106 | 4.21310 | 18935 ft | 314 kts | 260° |
| 2026-04-29 18:42 | 6.84756 | 4.19128 | 18509 ft | 316 kts | 260° |
| 2026-04-29 18:42 | 6.84403 | 4.16937 | 18073 ft | 317 kts | 260° |
| 2026-04-29 18:42 | 6.84051 | 4.14758 | 17626 ft | 315 kts | 260° |
| 2026-04-29 18:43 | 6.83702 | 4.12590 | 17216 ft | 313 kts | 260° |
| 2026-04-29 18:43 | 6.83354 | 4.10434 | 16807 ft | 311 kts | 260° |
| 2026-04-29 18:43 | 6.83008 | 4.08287 | 16402 ft | 310 kts | 261° |
| 2026-04-29 18:43 | 6.82668 | 4.06177 | 15996 ft | 309 kts | 261° |
| 2026-04-29 18:44 | 6.82323 | 4.04044 | 15590 ft | 308 kts | 261° |
| 2026-04-29 18:44 | 6.81980 | 4.01914 | 15184 ft | 307 kts | 261° |
| 2026-04-29 18:44 | 6.81637 | 3.99789 | 14780 ft | 307 kts | 261° |
| 2026-04-29 18:44 | 6.81295 | 3.97674 | 14379 ft | 306 kts | 261° |
| 2026-04-29 18:45 | 6.80954 | 3.95565 | 13978 ft | 305 kts | 261° |
| 2026-04-29 18:45 | 6.80612 | 3.93450 | 13561 ft | 309 kts | 261° |
| 2026-04-29 18:45 | 6.80265 | 3.91303 | 13126 ft | 311 kts | 261° |
| 2026-04-29 18:45 | 6.79914 | 3.89155 | 12709 ft | 311 kts | 260° |
| 2026-04-29 18:46 | 6.79564 | 3.87004 | 12296 ft | 311 kts | 261° |
| 2026-04-29 18:46 | 6.79219 | 3.84855 | 11890 ft | 311 kts | 260° |
| 2026-04-29 18:46 | 6.78873 | 3.82712 | 11479 ft | 311 kts | 260° |
| 2026-04-29 18:46 | 6.78524 | 3.80568 | 11070 ft | 310 kts | 260° |
| 2026-04-29 18:47 | 6.78177 | 3.78424 | 10664 ft | 310 kts | 260° |
| 2026-04-29 18:47 | 6.77838 | 3.76330 | 10262 ft | 294 kts | 260° |
| 2026-04-29 18:47 | 6.77521 | 3.74360 | 9910 ft | 277 kts | 260° |
| 2026-04-29 18:47 | 6.77293 | 3.72955 | 9656 ft | 266 kts | 260° |
| 2026-04-29 18:48 | 6.77011 | 3.71218 | 9318 ft | 243 kts | 260° |
| 2026-04-29 18:48 | 6.76747 | 3.69587 | 9034 ft | 230 kts | 260° |
| 2026-04-29 18:48 | 6.76495 | 3.68032 | 8747 ft | 220 kts | 259° |
| 2026-04-29 18:48 | 6.76252 | 3.66540 | 8475 ft | 212 kts | 259° |
| 2026-04-29 18:49 | 6.76024 | 3.65127 | 8210 ft | 195 kts | 259° |
| 2026-04-29 18:49 | 6.75814 | 3.63829 | 7980 ft | 184 kts | 259° |
| 2026-04-29 18:49 | 6.75609 | 3.62583 | 7751 ft | 178 kts | 258° |
| 2026-04-29 18:49 | 6.75416 | 3.61378 | 7530 ft | 171 kts | 259° |
| 2026-04-29 18:50 | 6.75227 | 3.60207 | 7317 ft | 166 kts | 258° |
| 2026-04-29 18:50 | 6.75041 | 3.59064 | 7093 ft | 163 kts | 258° |
| 2026-04-29 18:50 | 6.74862 | 3.57960 | 6885 ft | 158 kts | 258° |
| 2026-04-29 18:50 | 6.74690 | 3.56888 | 6689 ft | 154 kts | 258° |
| 2026-04-29 18:51 | 6.74517 | 3.55823 | 6480 ft | 153 kts | 258° |
| 2026-04-29 18:51 | 6.74355 | 3.54803 | 6285 ft | 145 kts | 258° |
| 2026-04-29 18:51 | 6.74197 | 3.53828 | 6095 ft | 137 kts | 258° |
| 2026-04-29 18:51 | 6.74008 | 3.52768 | 5924 ft | 177 kts | 257° |
| 2026-04-29 18:52 | 6.73799 | 3.51479 | 5634 ft | 183 kts | 259° |
| 2026-04-29 18:52 | 6.73610 | 3.50240 | 5395 ft | 185 kts | 258° |
| 2026-04-29 18:52 | 6.73404 | 3.48980 | 5138 ft | 183 kts | 259° |
| 2026-04-29 18:52 | 6.73201 | 3.47731 | 4881 ft | 177 kts | 258° |
| 2026-04-29 18:53 | 6.73000 | 3.46489 | 4663 ft | 183 kts | 259° |
| 2026-04-29 18:53 | 6.72801 | 3.45269 | 4423 ft | 178 kts | 258° |
| 2026-04-29 18:53 | 6.72601 | 3.44045 | 4180 ft | 175 kts | 258° |
| 2026-04-29 18:53 | 6.72403 | 3.42836 | 3950 ft | 174 kts | 258° |
| 2026-04-29 18:54 | 6.72209 | 3.41631 | 3714 ft | 175 kts | 258° |
| 2026-04-29 18:54 | 6.72014 | 3.40435 | 3490 ft | 172 kts | 258° |
| 2026-04-29 18:54 | 6.71823 | 3.39258 | 3260 ft | 165 kts | 258° |
| 2026-04-29 18:54 | 6.71650 | 3.38179 | 3062 ft | 153 kts | 258° |
| 2026-04-29 18:55 | 6.71482 | 3.37149 | 2860 ft | 145 kts | 257° |
| 2026-04-29 18:55 | 6.71325 | 3.36187 | 2686 ft | 135 kts | 257° |
| 2026-04-29 18:55 | 6.71171 | 3.35274 | 2511 ft | 130 kts | 257° |
| 2026-04-29 18:55 | 6.71023 | 3.34383 | 2346 ft | 126 kts | 256° |
| 2026-04-29 18:56 | 6.70794 | 3.33591 | 2209 ft | 111 kts | 234° |
| 2026-04-29 18:56 | 6.70278 | 3.33049 | 2112 ft | 109 kts | 211° |
| 2026-04-29 18:56 | 6.69610 | 3.32785 | 2089 ft | 94 kts | 187° |
| 2026-04-29 18:56 | 6.69031 | 3.32782 | 2097 ft | 82 kts | 174° |
| 2026-04-29 18:57 | 6.68441 | 3.32842 | 2246 ft | 98 kts | 178° |
| 2026-04-29 18:57 | 6.67672 | 3.32811 | 2226 ft | 117 kts | 181° |
| 2026-04-29 18:57 | 6.66874 | 3.32798 | 2095 ft | 111 kts | 180° |
| 2026-04-29 18:57 | 6.66169 | 3.32801 | 1873 ft | 94 kts | 179° |
| 2026-04-29 18:58 | 6.65505 | 3.32813 | 1669 ft | 100 kts | 178° |
| 2026-04-29 18:58 | 6.64788 | 3.32825 | 1488 ft | 102 kts | 180° |
| 2026-04-29 18:58 | 6.64128 | 3.32828 | 1269 ft | 91 kts | 179° |
| 2026-04-29 18:58 | 6.63480 | 3.32839 | 1072 ft | 96 kts | 178° |
| 2026-04-29 18:59 | 6.62798 | 3.32850 | 899 ft | 103 kts | 178° |
| 2026-04-29 18:59 | 6.62086 | 3.32849 | 741 ft | 102 kts | 180° |
| 2026-04-29 18:59 | 6.61371 | 3.32856 | 550 ft | 103 kts | 177° |
| 2026-04-29 18:59 | 6.60645 | 3.32872 | 356 ft | 105 kts | 178° |
| 2026-04-29 19:00 | 6.59930 | 3.32882 | 216 ft | 101 kts | 181° |
| 2026-04-29 19:00 | 6.59242 | 3.32886 | 129 ft | 96 kts | 178° |
| 2026-04-29 19:00 | 6.58699 | 3.32897 | 124 ft | 50 kts | 177° |
| 2026-04-29 19:00 | 6.58455 | 3.32903 | 118 ft | 37 kts | 179° |
| 2026-04-29 19:01 | 6.58167 | 3.32908 | 112 ft | 41 kts | 178° |
| 2026-04-29 19:01 | 6.58054 | 3.32942 | 107 ft | 19 kts | 102° |
| 2026-04-29 19:01 | 6.58198 | 3.33049 | 112 ft | 31 kts | 0° |
| 2026-04-29 19:01 | 6.58352 | 3.33049 | 119 ft | 20 kts | 34° |
| 2026-04-29 19:02 | 6.58367 | 3.33123 | 121 ft | 3 kts | 86° |
| 2026-04-29 19:02 | 6.58354 | 3.33184 | 122 ft | 14 kts | 88° |
| 2026-04-29 19:02 | 6.58364 | 3.33212 | 121 ft | 0 kts | 243° |